sensor_id;sensor_type;location;lat;lon;timestamp;pressure;altitude;pressure_sealevel;temperature;humidity
5755;BME280;2902;42.130;24.732;2023-04-20T00:00:00;99067.88;;;12.90;100.00
5755;BME280;2902;42.130;24.732;2023-04-20T00:02:33;99054.84;;;12.82;100.00
5755;BME280;2902;42.130;24.732;2023-04-20T00:05:01;99061.78;;;12.83;100.00
5755;BME280;2902;42.130;24.732;2023-04-20T00:07:27;99064.69;;;12.82;100.00
5755;BME280;2902;42.130;24.732;2023-04-20T00:09:54;99060.16;;;12.82;100.00
5755;BME280;2902;42.130;24.732;2023-04-20T00:12:21;99053.63;;;12.78;100.00
5755;BME280;2902;42.130;24.732;2023-04-20T00:14:49;99048.78;;;12.75;100.00
5755;BME280;2902;42.130;24.732;2023-04-20T00:17:16;99055.13;;;12.74;100.00
5755;BME280;2902;42.130;24.732;2023-04-20T00:19:42;99049.63;;;12.69;100.00
5755;BME280;2902;42.130;24.732;2023-04-20T00:22:09;99047.69;;;12.58;100.00
5755;BME280;2902;42.130;24.732;2023-04-20T00:24:36;99053.91;;;12.52;100.00
5755;BME280;2902;42.130;24.732;2023-04-20T00:27:02;99050.91;;;12.42;100.00
5755;BME280;2902;42.130;24.732;2023-04-20T00:29:29;99049.69;;;12.45;100.00
5755;BME280;2902;42.130;24.732;2023-04-20T00:31:57;99046.47;;;12.36;100.00
5755;BME280;2902;42.130;24.732;2023-04-20T00:34:24;99054.47;;;12.36;100.00
5755;BME280;2902;42.130;24.732;2023-04-20T00:36:51;99043.66;;;12.31;100.00
5755;BME280;2902;42.130;24.732;2023-04-20T00:39:18;99043.88;;;12.30;100.00
5755;BME280;2902;42.130;24.732;2023-04-20T00:41:44;99039.03;;;12.20;100.00
5755;BME280;2902;42.130;24.732;2023-04-20T00:44:11;99045.38;;;12.19;100.00
5755;BME280;2902;42.130;24.732;2023-04-20T00:46:38;99054.22;;;12.13;100.00
5755;BME280;2902;42.130;24.732;2023-04-20T00:49:06;99047.53;;;12.04;100.00
5755;BME280;2902;42.130;24.732;2023-04-20T00:51:34;99044.56;;;11.94;100.00
5755;BME280;2902;42.130;24.732;2023-04-20T00:54:01;99046.34;;;12.00;100.00
5755;BME280;2902;42.130;24.732;2023-04-20T00:56:28;99051.81;;;12.05;100.00
5755;BME280;2902;42.130;24.732;2023-04-20T00:58:54;99036.72;;;11.99;100.00
5755;BME280;2902;42.130;24.732;2023-04-20T01:01:21;99047.75;;;12.03;100.00
5755;BME280;2902;42.130;24.732;2023-04-20T01:03:48;99050.19;;;12.04;100.00
5755;BME280;2902;42.130;24.732;2023-04-20T01:06:16;99045.66;;;12.11;100.00
5755;BME280;2902;42.130;24.732;2023-04-20T01:08:47;99046.69;;;12.10;100.00
5755;BME280;2902;42.130;24.732;2023-04-20T01:11:14;99051.63;;;12.07;100.00
5755;BME280;2902;42.130;24.732;2023-04-20T01:13:41;99055.56;;;11.98;100.00
5755;BME280;2902;42.130;24.732;2023-04-20T01:16:08;99048.25;;;11.93;100.00
5755;BME280;2902;42.130;24.732;2023-04-20T01:18:47;99045.69;;;11.74;100.00
5755;BME280;2902;42.130;24.732;2023-04-20T01:21:16;99049.44;;;11.60;100.00
5755;BME280;2902;42.130;24.732;2023-04-20T01:23:45;99048.44;;;11.54;100.00
5755;BME280;2902;42.130;24.732;2023-04-20T01:26:13;99037.84;;;11.48;100.00
5755;BME280;2902;42.130;24.732;2023-04-20T01:28:41;99032.16;;;11.44;100.00
5755;BME280;2902;42.130;24.732;2023-04-20T01:31:09;99035.75;;;11.56;100.00
5755;BME280;2902;42.130;24.732;2023-04-20T01:33:36;99044.94;;;11.60;100.00
5755;BME280;2902;42.130;24.732;2023-04-20T01:36:04;99033.31;;;11.55;100.00
5755;BME280;2902;42.130;24.732;2023-04-20T01:38:31;99040.25;;;11.56;100.00
5755;BME280;2902;42.130;24.732;2023-04-20T01:41:01;99039.44;;;11.55;100.00
5755;BME280;2902;42.130;24.732;2023-04-20T01:43:29;99040.47;;;11.61;100.00
5755;BME280;2902;42.130;24.732;2023-04-20T01:45:56;99036.31;;;11.71;100.00
5755;BME280;2902;42.130;24.732;2023-04-20T01:48:23;99038.53;;;11.74;100.00
5755;BME280;2902;42.130;24.732;2023-04-20T01:50:49;99042.00;;;11.81;99.15
5755;BME280;2902;42.130;24.732;2023-04-20T01:53:16;99038.25;;;11.89;98.62
5755;BME280;2902;42.130;24.732;2023-04-20T01:55:43;99031.09;;;11.83;98.22
5755;BME280;2902;42.130;24.732;2023-04-20T01:58:11;99017.09;;;11.69;97.64
5755;BME280;2902;42.130;24.732;2023-04-20T02:00:38;99037.25;;;11.83;97.24
5755;BME280;2902;42.130;24.732;2023-04-20T02:03:05;99041.31;;;11.86;96.66
5755;BME280;2902;42.130;24.732;2023-04-20T02:05:32;99030.16;;;11.77;96.19
5755;BME280;2902;42.130;24.732;2023-04-20T02:07:58;99025.81;;;11.76;96.76
5755;BME280;2902;42.130;24.732;2023-04-20T02:10:25;99039.66;;;11.91;97.01
5755;BME280;2902;42.130;24.732;2023-04-20T02:12:52;99036.41;;;11.89;96.66
5755;BME280;2902;42.130;24.732;2023-04-20T02:15:20;99027.47;;;11.77;95.70
5755;BME280;2902;42.130;24.732;2023-04-20T02:17:46;99039.59;;;11.73;96.40
5755;BME280;2902;42.130;24.732;2023-04-20T02:20:16;99034.84;;;11.75;96.74
5755;BME280;2902;42.130;24.732;2023-04-20T02:22:44;99040.22;;;11.69;96.30
5755;BME280;2902;42.130;24.732;2023-04-20T02:25:11;99038.50;;;11.81;97.48
5755;BME280;2902;42.130;24.732;2023-04-20T02:27:38;99042.53;;;11.90;97.12
5755;BME280;2902;42.130;24.732;2023-04-20T02:30:05;99037.63;;;11.87;95.38
5755;BME280;2902;42.130;24.732;2023-04-20T02:32:34;99044.59;;;11.88;93.81
5755;BME280;2902;42.130;24.732;2023-04-20T02:35:00;99043.00;;;11.80;94.48
5755;BME280;2902;42.130;24.732;2023-04-20T02:37:28;99046.09;;;11.77;94.03
5755;BME280;2902;42.130;24.732;2023-04-20T02:39:55;99043.00;;;11.80;94.59
5755;BME280;2902;42.130;24.732;2023-04-20T02:42:22;99040.13;;;11.82;94.43
5755;BME280;2902;42.130;24.732;2023-04-20T02:44:49;99042.69;;;11.64;94.04
5755;BME280;2902;42.130;24.732;2023-04-20T02:47:16;99041.09;;;11.63;92.26
5755;BME280;2902;42.130;24.732;2023-04-20T02:49:44;99047.41;;;11.55;92.28
5755;BME280;2902;42.130;24.732;2023-04-20T02:52:11;99051.69;;;11.56;92.24
5755;BME280;2902;42.130;24.732;2023-04-20T02:54:38;99050.69;;;11.57;91.79
5755;BME280;2902;42.130;24.732;2023-04-20T02:57:05;99040.63;;;11.59;91.58
5755;BME280;2902;42.130;24.732;2023-04-20T02:59:32;99042.53;;;11.52;91.83
5755;BME280;2902;42.130;24.732;2023-04-20T03:01:58;99049.47;;;11.53;91.77
5755;BME280;2902;42.130;24.732;2023-04-20T03:04:25;99038.69;;;11.48;91.45
5755;BME280;2902;42.130;24.732;2023-04-20T03:06:53;99045.63;;;11.49;92.92
5755;BME280;2902;42.130;24.732;2023-04-20T03:09:20;99049.91;;;11.50;92.22
5755;BME280;2902;42.130;24.732;2023-04-20T03:11:46;99038.09;;;11.40;92.53
5755;BME280;2902;42.130;24.732;2023-04-20T03:14:13;99049.31;;;11.48;92.14
5755;BME280;2902;42.130;24.732;2023-04-20T03:16:40;99040.53;;;11.41;92.90
5755;BME280;2902;42.130;24.732;2023-04-20T03:19:07;99038.91;;;11.34;92.70
5755;BME280;2902;42.130;24.732;2023-04-20T03:21:34;99042.78;;;11.38;92.75
5755;BME280;2902;42.130;24.732;2023-04-20T03:24:02;99037.94;;;11.28;93.26
5755;BME280;2902;42.130;24.732;2023-04-20T03:26:30;99045.50;;;11.25;91.93
5755;BME280;2902;42.130;24.732;2023-04-20T03:28:57;99044.28;;;11.27;91.42
5755;BME280;2902;42.130;24.732;2023-04-20T03:31:24;99031.25;;;11.13;92.42
5755;BME280;2902;42.130;24.732;2023-04-20T03:33:50;99033.31;;;11.11;92.24
5755;BME280;2902;42.130;24.732;2023-04-20T03:36:17;99033.53;;;11.09;91.97
5755;BME280;2902;42.130;24.732;2023-04-20T03:38:44;99020.47;;;11.01;92.62
5755;BME280;2902;42.130;24.732;2023-04-20T03:41:12;99038.03;;;11.02;92.72
5755;BME280;2902;42.130;24.732;2023-04-20T03:43:39;99036.22;;;11.02;92.50
5755;BME280;2902;42.130;24.732;2023-04-20T03:46:06;99034.59;;;11.02;92.31
5755;BME280;2902;42.130;24.732;2023-04-20T03:48:33;99039.25;;;11.06;92.46
5755;BME280;2902;42.130;24.732;2023-04-20T03:51:00;99033.53;;;11.09;91.48
5755;BME280;2902;42.130;24.732;2023-04-20T03:53:26;99042.88;;;11.18;91.44
5755;BME280;2902;42.130;24.732;2023-04-20T03:55:54;99049.34;;;11.35;91.13
5755;BME280;2902;42.130;24.732;2023-04-20T03:58:22;99050.16;;;11.42;90.53
5755;BME280;2902;42.130;24.732;2023-04-20T04:00:49;99050.53;;;11.52;90.57
5755;BME280;2902;42.130;24.732;2023-04-20T04:03:15;99052.72;;;11.55;90.37
5755;BME280;2902;42.130;24.732;2023-04-20T04:05:42;99050.47;;;11.59;90.31
5755;BME280;2902;42.130;24.732;2023-04-20T04:08:09;99037.97;;;11.59;89.61
5755;BME280;2902;42.130;24.732;2023-04-20T04:10:36;99063.06;;;11.76;88.96
5755;BME280;2902;42.130;24.732;2023-04-20T04:13:02;99066.72;;;11.82;88.85
5755;BME280;2902;42.130;24.732;2023-04-20T04:15:30;99057.69;;;11.89;88.71
5755;BME280;2902;42.130;24.732;2023-04-20T04:17:57;99071.03;;;12.14;87.40
5755;BME280;2902;42.130;24.732;2023-04-20T04:20:24;99066.56;;;12.32;86.42
5755;BME280;2902;42.130;24.732;2023-04-20T04:22:50;99074.81;;;12.73;85.33
5755;BME280;2902;42.130;24.732;2023-04-20T04:25:17;99082.88;;;13.27;82.47
5755;BME280;2902;42.130;24.732;2023-04-20T04:27:44;99087.56;;;13.79;80.66
5755;BME280;2902;42.130;24.732;2023-04-20T04:30:12;99085.31;;;14.35;77.85
5755;BME280;2902;42.130;24.732;2023-04-20T04:32:40;99090.69;;;14.81;75.85
5755;BME280;2902;42.130;24.732;2023-04-20T04:35:08;99093.91;;;15.29;73.81
5755;BME280;2902;42.130;24.732;2023-04-20T04:37:35;99104.69;;;15.85;71.85
5755;BME280;2902;42.130;24.732;2023-04-20T04:40:03;99097.47;;;16.14;70.69
5755;BME280;2902;42.130;24.732;2023-04-20T04:42:31;99101.59;;;16.50;69.91
5755;BME280;2902;42.130;24.732;2023-04-20T04:44:58;99114.34;;;16.59;67.80
5755;BME280;2902;42.130;24.732;2023-04-20T04:47:26;99099.09;;;16.32;68.10
5755;BME280;2902;42.130;24.732;2023-04-20T04:49:56;99097.53;;;15.74;69.65
5755;BME280;2902;42.130;24.732;2023-04-20T04:52:25;99093.78;;;15.24;71.98
5755;BME280;2902;42.130;24.732;2023-04-20T04:54:52;99085.81;;;15.01;73.08
5755;BME280;2902;42.130;24.732;2023-04-20T04:57:19;99081.97;;;14.63;74.05
5755;BME280;2902;42.130;24.732;2023-04-20T04:59:46;99081.81;;;14.23;76.02
5755;BME280;2902;42.130;24.732;2023-04-20T05:02:12;99076.16;;;14.13;76.71
5755;BME280;2902;42.130;24.732;2023-04-20T05:04:39;99076.03;;;14.08;77.60
5755;BME280;2902;42.130;24.732;2023-04-20T05:07:07;99077.72;;;13.91;77.80
5755;BME280;2902;42.130;24.732;2023-04-20T05:09:35;99085.53;;;14.04;78.25
5755;BME280;2902;42.130;24.732;2023-04-20T05:12:02;99071.75;;;14.07;76.84
5755;BME280;2902;42.130;24.732;2023-04-20T05:14:29;99077.09;;;14.07;76.62
5755;BME280;2902;42.130;24.732;2023-04-20T05:16:57;99080.16;;;14.22;76.99
5755;BME280;2902;42.130;24.732;2023-04-20T05:19:23;99094.16;;;14.47;76.38
5755;BME280;2902;42.130;24.732;2023-04-20T05:21:50;99071.88;;;14.76;81.00
5755;BME280;2902;42.130;24.732;2023-04-20T05:24:18;99090.50;;;15.34;77.77
5755;BME280;2902;42.130;24.732;2023-04-20T05:26:45;99092.81;;;15.53;77.56
5755;BME280;2902;42.130;24.732;2023-04-20T05:29:13;99102.94;;;15.51;72.50
5755;BME280;2902;42.130;24.732;2023-04-20T05:31:40;99092.56;;;15.55;75.58
5755;BME280;2902;42.130;24.732;2023-04-20T05:34:06;99087.47;;;15.81;79.22
5755;BME280;2902;42.130;24.732;2023-04-20T05:36:33;99110.25;;;15.96;71.79
5755;BME280;2902;42.130;24.732;2023-04-20T05:39:00;99105.16;;;15.82;70.80
5755;BME280;2902;42.130;24.732;2023-04-20T05:41:28;99103.78;;;15.80;70.31
5755;BME280;2902;42.130;24.732;2023-04-20T05:43:55;99104.53;;;16.20;74.13
5755;BME280;2902;42.130;24.732;2023-04-20T05:46:21;99103.38;;;16.77;71.78
5755;BME280;2902;42.130;24.732;2023-04-20T05:48:48;99109.69;;;16.88;68.12
5755;BME280;2902;42.130;24.732;2023-04-20T05:51:15;99118.47;;;17.00;66.50
5755;BME280;2902;42.130;24.732;2023-04-20T05:53:42;99110.94;;;17.35;66.47
5755;BME280;2902;42.130;24.732;2023-04-20T05:56:09;99112.53;;;17.36;62.98
5755;BME280;2902;42.130;24.732;2023-04-20T05:58:37;99108.88;;;17.42;64.06
5755;BME280;2902;42.130;24.732;2023-04-20T06:01:04;99109.75;;;17.47;63.23
5755;BME280;2902;42.130;24.732;2023-04-20T06:03:31;99110.78;;;17.41;63.27
5755;BME280;2902;42.130;24.732;2023-04-20T06:05:58;99118.66;;;17.69;61.92
5755;BME280;2902;42.130;24.732;2023-04-20T06:08:25;99129.53;;;18.32;61.51
5755;BME280;2902;42.130;24.732;2023-04-20T06:10:52;99132.16;;;18.80;58.65
5755;BME280;2902;42.130;24.732;2023-04-20T06:13:20;99126.13;;;18.68;59.31
5755;BME280;2902;42.130;24.732;2023-04-20T06:15:48;99126.56;;;18.92;60.05
5755;BME280;2902;42.130;24.732;2023-04-20T06:18:17;99120.31;;;18.23;58.32
5755;BME280;2902;42.130;24.732;2023-04-20T06:20:43;99134.72;;;18.39;58.04
5755;BME280;2902;42.130;24.732;2023-04-20T06:23:10;99129.84;;;18.36;58.82
5755;BME280;2902;42.130;24.732;2023-04-20T06:25:37;99128.25;;;18.35;58.82
5755;BME280;2902;42.130;24.732;2023-04-20T06:28:04;99132.41;;;18.79;57.62
5755;BME280;2902;42.130;24.732;2023-04-20T06:30:31;99124.03;;;19.12;57.53
5755;BME280;2902;42.130;24.732;2023-04-20T06:32:59;99123.53;;;19.20;56.93
5755;BME280;2902;42.130;24.732;2023-04-20T06:35:26;99117.84;;;19.68;57.06
5755;BME280;2902;42.130;24.732;2023-04-20T06:37:53;99122.94;;;20.36;55.71
5755;BME280;2902;42.130;24.732;2023-04-20T06:40:21;99136.22;;;21.03;51.64
5755;BME280;2902;42.130;24.732;2023-04-20T06:42:48;99132.09;;;21.30;53.65
5755;BME280;2902;42.130;24.732;2023-04-20T06:45:15;99136.47;;;20.81;49.92
5755;BME280;2902;42.130;24.732;2023-04-20T06:47:42;99128.63;;;20.44;50.47
5755;BME280;2902;42.130;24.732;2023-04-20T06:50:10;99126.41;;;20.16;51.08
5755;BME280;2902;42.130;24.732;2023-04-20T06:52:38;99126.13;;;20.13;51.25
5755;BME280;2902;42.130;24.732;2023-04-20T06:55:05;99110.16;;;20.01;51.45
5755;BME280;2902;42.130;24.732;2023-04-20T06:57:32;99107.81;;;20.15;52.36
5755;BME280;2902;42.130;24.732;2023-04-20T07:00:00;99112.69;;;20.58;54.09
5755;BME280;2902;42.130;24.732;2023-04-20T07:02:27;99122.91;;;21.31;50.57
5755;BME280;2902;42.130;24.732;2023-04-20T07:04:59;99114.78;;;21.41;49.39
5755;BME280;2902;42.130;24.732;2023-04-20T07:07:27;99123.63;;;21.62;47.92
5755;BME280;2902;42.130;24.732;2023-04-20T07:09:54;99130.94;;;21.56;46.75
5755;BME280;2902;42.130;24.732;2023-04-20T07:12:21;99127.28;;;20.82;47.39
5755;BME280;2902;42.130;24.732;2023-04-20T07:14:47;99122.41;;;20.89;48.67
5755;BME280;2902;42.130;24.732;2023-04-20T07:17:14;99128.09;;;21.03;48.47
5755;BME280;2902;42.130;24.732;2023-04-20T07:19:41;99120.25;;;20.86;49.53
5755;BME280;2902;42.130;24.732;2023-04-20T07:22:07;99113.75;;;21.22;50.22
5755;BME280;2902;42.130;24.732;2023-04-20T07:24:36;99119.69;;;21.29;47.23
5755;BME280;2902;42.130;24.732;2023-04-20T07:27:02;99123.97;;;21.35;48.48
5755;BME280;2902;42.130;24.732;2023-04-20T07:29:30;99133.28;;;21.88;46.27
5755;BME280;2902;42.130;24.732;2023-04-20T07:31:56;99118.41;;;21.90;45.67
5755;BME280;2902;42.130;24.732;2023-04-20T07:34:23;99126.31;;;21.77;45.49
5755;BME280;2902;42.130;24.732;2023-04-20T07:36:50;99121.78;;;21.47;46.52
5755;BME280;2902;42.130;24.732;2023-04-20T07:39:16;99114.09;;;21.84;46.21
5755;BME280;2902;42.130;24.732;2023-04-20T07:41:44;99127.78;;;21.34;46.19
5755;BME280;2902;42.130;24.732;2023-04-20T07:44:11;99122.94;;;21.21;46.45
5755;BME280;2902;42.130;24.732;2023-04-20T07:46:38;99119.69;;;21.29;47.50
5755;BME280;2902;42.130;24.732;2023-04-20T07:49:06;99118.53;;;21.50;46.70
5755;BME280;2902;42.130;24.732;2023-04-20T07:51:32;99127.81;;;21.24;46.75
5755;BME280;2902;42.130;24.732;2023-04-20T07:53:59;99120.75;;;21.33;47.00
5755;BME280;2902;42.130;24.732;2023-04-20T07:56:26;99122.47;;;21.88;46.68
5755;BME280;2902;42.130;24.732;2023-04-20T07:58:54;99132.00;;;22.24;44.65
5755;BME280;2902;42.130;24.732;2023-04-20T08:01:22;99125.03;;;22.13;46.66
5755;BME280;2902;42.130;24.732;2023-04-20T08:03:50;99124.03;;;22.42;44.84
5755;BME280;2902;42.130;24.732;2023-04-20T08:06:16;99128.47;;;22.28;44.72
5755;BME280;2902;42.130;24.732;2023-04-20T08:08:43;99112.09;;;21.41;45.83
5755;BME280;2902;42.130;24.732;2023-04-20T08:11:10;99109.19;;;20.27;48.77
5755;BME280;2902;42.130;24.732;2023-04-20T08:13:37;99103.84;;;19.66;50.37
5755;BME280;2902;42.130;24.732;2023-04-20T08:16:06;99103.03;;;19.65;51.33
5755;BME280;2902;42.130;24.732;2023-04-20T08:18:32;99095.41;;;20.29;51.26
5755;BME280;2902;42.130;24.732;2023-04-20T08:20:59;99091.06;;;20.13;50.29
5755;BME280;2902;42.130;24.732;2023-04-20T08:23:26;99098.38;;;20.22;50.38
5755;BME280;2902;42.130;24.732;2023-04-20T08:25:53;99093.22;;;20.21;51.07
5755;BME280;2902;42.130;24.732;2023-04-20T08:28:20;99087.06;;;20.45;50.49
5755;BME280;2902;42.130;24.732;2023-04-20T08:30:47;99089.50;;;20.72;51.39
5755;BME280;2902;42.130;24.732;2023-04-20T08:33:15;99090.84;;;20.65;49.97
5755;BME280;2902;42.130;24.732;2023-04-20T08:35:42;99091.09;;;20.73;49.63
5755;BME280;2902;42.130;24.732;2023-04-20T08:38:09;99084.25;;;21.36;50.18
5755;BME280;2902;42.130;24.732;2023-04-20T08:40:36;99092.25;;;21.76;47.86
5755;BME280;2902;42.130;24.732;2023-04-20T08:43:03;99089.44;;;21.91;47.91
5755;BME280;2902;42.130;24.732;2023-04-20T08:45:29;99099.84;;;22.17;45.57
5755;BME280;2902;42.130;24.732;2023-04-20T08:47:57;99105.31;;;22.07;44.50
5755;BME280;2902;42.130;24.732;2023-04-20T08:50:25;99091.53;;;22.04;44.15
5755;BME280;2902;42.130;24.732;2023-04-20T08:52:52;99094.41;;;22.61;44.47
5755;BME280;2902;42.130;24.732;2023-04-20T08:55:19;99092.00;;;22.88;45.13
5755;BME280;2902;42.130;24.732;2023-04-20T08:57:47;99088.34;;;22.74;43.76
5755;BME280;2902;42.130;24.732;2023-04-20T09:00:15;99083.78;;;21.87;44.42
5755;BME280;2902;42.130;24.732;2023-04-20T09:02:48;99066.69;;;21.38;45.11
5755;BME280;2902;42.130;24.732;2023-04-20T09:05:23;99084.41;;;21.64;45.32
5755;BME280;2902;42.130;24.732;2023-04-20T09:07:53;99072.63;;;21.45;46.03
5755;BME280;2902;42.130;24.732;2023-04-20T09:10:21;99081.97;;;21.73;46.60
5755;BME280;2902;42.130;24.732;2023-04-20T09:12:49;99069.34;;;21.48;46.25
5755;BME280;2902;42.130;24.732;2023-04-20T09:15:24;99080.38;;;21.62;45.81
5755;BME280;2902;42.130;24.732;2023-04-20T09:17:51;99079.78;;;21.70;45.20
5755;BME280;2902;42.130;24.732;2023-04-20T09:20:27;99088.72;;;21.75;43.84
5755;BME280;2902;42.130;24.732;2023-04-20T09:22:55;99090.63;;;21.65;44.33
5755;BME280;2902;42.130;24.732;2023-04-20T09:25:23;99080.66;;;21.55;44.36
5755;BME280;2902;42.130;24.732;2023-04-20T09:27:56;99079.66;;;22.00;44.02
5755;BME280;2902;42.130;24.732;2023-04-20T09:30:23;99076.31;;;21.69;44.26
5755;BME280;2902;42.130;24.732;2023-04-20T09:33:00;99068.03;;;21.41;45.12
5755;BME280;2902;42.130;24.732;2023-04-20T09:35:26;99079.66;;;21.31;44.64
5755;BME280;2902;42.130;24.732;2023-04-20T09:37:54;99076.91;;;21.51;44.67
5755;BME280;2902;42.130;24.732;2023-04-20T09:40:23;99081.16;;;21.72;42.83
5755;BME280;2902;42.130;24.732;2023-04-20T09:42:52;99069.28;;;21.73;42.83
5755;BME280;2902;42.130;24.732;2023-04-20T09:45:19;99076.13;;;22.04;43.00
5755;BME280;2902;42.130;24.732;2023-04-20T09:47:46;99078.94;;;22.28;41.98
5755;BME280;2902;42.130;24.732;2023-04-20T09:50:15;99077.84;;;21.90;43.01
5755;BME280;2902;42.130;24.732;2023-04-20T09:52:42;99063.78;;;21.88;44.05
5755;BME280;2902;42.130;24.732;2023-04-20T09:55:14;99058.25;;;22.08;44.59
5755;BME280;2902;42.130;24.732;2023-04-20T09:57:41;99071.09;;;22.26;42.44
5755;BME280;2902;42.130;24.732;2023-04-20T10:00:10;99062.88;;;22.75;42.51
5755;BME280;2902;42.130;24.732;2023-04-20T10:02:37;99051.56;;;22.96;40.57
5755;BME280;2902;42.130;24.732;2023-04-20T10:05:05;99053.31;;;23.11;40.87
5755;BME280;2902;42.130;24.732;2023-04-20T10:07:32;99050.25;;;23.17;39.69
5755;BME280;2902;42.130;24.732;2023-04-20T10:10:06;99061.97;;;23.36;38.42
5755;BME280;2902;42.130;24.732;2023-04-20T10:12:46;99053.53;;;22.91;39.13
5755;BME280;2902;42.130;24.732;2023-04-20T10:15:12;99045.16;;;22.20;40.16
5755;BME280;2902;42.130;24.732;2023-04-20T10:17:39;99031.78;;;22.00;42.06
5755;BME280;2902;42.130;24.732;2023-04-20T10:20:17;99030.84;;;21.76;42.28
5755;BME280;2902;42.130;24.732;2023-04-20T10:22:44;99026.66;;;21.40;44.20
5755;BME280;2902;42.130;24.732;2023-04-20T10:25:15;99021.72;;;21.62;43.71
5755;BME280;2902;42.130;24.732;2023-04-20T10:27:55;99028.75;;;22.07;44.24
5755;BME280;2902;42.130;24.732;2023-04-20T10:30:23;99029.50;;;22.17;44.15
5755;BME280;2902;42.130;24.732;2023-04-20T10:33:01;99030.81;;;21.81;44.15
5755;BME280;2902;42.130;24.732;2023-04-20T10:35:28;99023.78;;;21.80;42.26
5755;BME280;2902;42.130;24.732;2023-04-20T10:38:06;99027.63;;;21.69;42.01
5755;BME280;2902;42.130;24.732;2023-04-20T10:40:32;99032.88;;;21.99;42.11
5755;BME280;2902;42.130;24.732;2023-04-20T10:43:00;99040.75;;;21.91;41.64
5755;BME280;2902;42.130;24.732;2023-04-20T10:45:37;99026.09;;;21.53;42.45
5755;BME280;2902;42.130;24.732;2023-04-20T10:48:07;99029.28;;;21.70;43.23
5755;BME280;2902;42.130;24.732;2023-04-20T10:50:34;99029.25;;;21.75;42.73
5755;BME280;2902;42.130;24.732;2023-04-20T10:53:01;99026.47;;;21.85;40.21
5755;BME280;2902;42.130;24.732;2023-04-20T10:55:29;99029.16;;;21.90;40.73
5755;BME280;2902;42.130;24.732;2023-04-20T10:57:57;99038.06;;;21.96;40.92
5755;BME280;2902;42.130;24.732;2023-04-20T11:00:27;99033.84;;;22.18;39.45
5755;BME280;2902;42.130;24.732;2023-04-20T11:02:55;99035.72;;;22.18;39.78
5755;BME280;2902;42.130;24.732;2023-04-20T11:05:24;99026.91;;;22.36;39.33
5755;BME280;2902;42.130;24.732;2023-04-20T11:07:51;99036.81;;;22.55;38.69
5755;BME280;2902;42.130;24.732;2023-04-20T11:10:19;99044.03;;;22.26;38.21
5755;BME280;2902;42.130;24.732;2023-04-20T11:12:46;99048.16;;;22.19;41.93
5755;BME280;2902;42.130;24.732;2023-04-20T11:15:13;99038.94;;;22.20;53.37
5755;BME280;2902;42.130;24.732;2023-04-20T11:17:42;99031.44;;;21.73;54.22
5755;BME280;2902;42.130;24.732;2023-04-20T11:20:11;99046.03;;;20.63;54.08
5755;BME280;2902;42.130;24.732;2023-04-20T11:22:40;99042.50;;;20.08;54.75
5755;BME280;2902;42.130;24.732;2023-04-20T11:25:08;99032.03;;;20.41;61.33
5755;BME280;2902;42.130;24.732;2023-04-20T11:27:36;99019.84;;;20.74;60.58
5755;BME280;2902;42.130;24.732;2023-04-20T11:30:05;99007.19;;;20.54;64.70
5755;BME280;2902;42.130;24.732;2023-04-20T11:32:33;99001.00;;;20.44;66.00
5755;BME280;2902;42.130;24.732;2023-04-20T11:35:03;98984.53;;;20.50;68.16
5755;BME280;2902;42.130;24.732;2023-04-20T11:37:32;98979.16;;;20.15;65.35
5755;BME280;2902;42.130;24.732;2023-04-20T11:39:59;98976.19;;;20.12;63.59
5755;BME280;2902;42.130;24.732;2023-04-20T11:42:26;98967.00;;;19.98;65.15
5755;BME280;2902;42.130;24.732;2023-04-20T11:44:53;98965.13;;;20.03;65.22
5755;BME280;2902;42.130;24.732;2023-04-20T11:47:20;98960.00;;;19.97;66.83
5755;BME280;2902;42.130;24.732;2023-04-20T11:49:47;98952.69;;;19.92;65.28
5755;BME280;2902;42.130;24.732;2023-04-20T11:52:15;98954.59;;;19.82;62.58
5755;BME280;2902;42.130;24.732;2023-04-20T11:54:42;98952.97;;;19.86;62.41
5755;BME280;2902;42.130;24.732;2023-04-20T11:57:09;98935.72;;;20.02;63.42
5755;BME280;2902;42.130;24.732;2023-04-20T11:59:35;98950.31;;;20.11;61.64
5755;BME280;2902;42.130;24.732;2023-04-20T12:02:02;98956.78;;;20.10;58.25
5755;BME280;2902;42.130;24.732;2023-04-20T12:04:30;98952.97;;;19.96;57.21
5755;BME280;2902;42.130;24.732;2023-04-20T12:06:57;98948.13;;;20.13;57.88
5755;BME280;2902;42.130;24.732;2023-04-20T12:09:25;98932.50;;;20.10;54.91
5755;BME280;2902;42.130;24.732;2023-04-20T12:11:52;98953.50;;;20.33;52.79
5755;BME280;2902;42.130;24.732;2023-04-20T12:14:19;98952.91;;;20.66;52.84
5755;BME280;2902;42.130;24.732;2023-04-20T12:16:46;98949.13;;;20.72;53.27
5755;BME280;2902;42.130;24.732;2023-04-20T12:19:12;98957.19;;;20.77;48.17
5755;BME280;2902;42.130;24.732;2023-04-20T12:21:40;98944.78;;;20.81;48.92
5755;BME280;2902;42.130;24.732;2023-04-20T12:24:07;98942.09;;;20.76;46.40
5755;BME280;2902;42.130;24.732;2023-04-20T12:26:35;98940.97;;;20.82;47.93
5755;BME280;2902;42.130;24.732;2023-04-20T12:29:01;98927.72;;;21.01;50.76
5755;BME280;2902;42.130;24.732;2023-04-20T12:31:28;98936.06;;;21.09;47.46
5755;BME280;2902;42.130;24.732;2023-04-20T12:33:55;98940.41;;;21.05;46.50
5755;BME280;2902;42.130;24.732;2023-04-20T12:36:22;98935.50;;;21.12;46.75
5755;BME280;2902;42.130;24.732;2023-04-20T12:38:49;98923.34;;;21.15;47.11
5755;BME280;2902;42.130;24.732;2023-04-20T12:41:18;98929.19;;;21.32;46.67
5755;BME280;2902;42.130;24.732;2023-04-20T12:43:46;98928.31;;;21.41;47.06
5755;BME280;2902;42.130;24.732;2023-04-20T12:46:12;98933.72;;;21.41;44.37
5755;BME280;2902;42.130;24.732;2023-04-20T12:48:39;98922.94;;;21.36;44.37
5755;BME280;2902;42.130;24.732;2023-04-20T12:51:06;98918.94;;;21.67;45.34
5755;BME280;2902;42.130;24.732;2023-04-20T12:53:33;98919.13;;;21.86;45.67
5755;BME280;2902;42.130;24.732;2023-04-20T12:55:59;98928.56;;;21.88;44.01
5755;BME280;2902;42.130;24.732;2023-04-20T12:58:26;98921.31;;;21.84;43.81
5755;BME280;2902;42.130;24.732;2023-04-20T13:00:54;98922.59;;;21.91;45.44
5755;BME280;2902;42.130;24.732;2023-04-20T13:03:21;98914.38;;;22.01;45.31
5755;BME280;2902;42.130;24.732;2023-04-20T13:05:47;98913.53;;;22.06;45.24
5755;BME280;2902;42.130;24.732;2023-04-20T13:08:14;98913.19;;;22.12;46.33
5755;BME280;2902;42.130;24.732;2023-04-20T13:10:42;98904.69;;;22.24;45.16